Time;durP1;ratioP1;P1;durP2;ratioP2;P2;SDS_P1;SDS_P2;PMS_P1;PMS_P2;Temp;Humidity;BMP_temperature;BMP_pressure;BME280_temperature;BME280_humidity;BME280_pressure;Samples;Min_cycle;Max_cycle;Signal;HPM_P1;HPM_P2
2022/05/12 00:00:37;;;;;;;4.45;4.15;;;16.30;96.90;;;17.20;59.93;97677.41;5189758;28;20316;-59
2022/05/12 00:03:12;;;;;;;4.10;3.67;;;16.40;97.30;;;17.36;59.58;97686.44;5193957;28;20202;-51
2022/05/12 00:05:45;;;;;;;4.95;4.18;;;16.50;96.70;;;17.44;58.57;97687.53;5190630;28;20591;-53
2022/05/12 00:08:18;;;;;;;3.90;3.60;;;16.50;96.20;;;17.28;59.19;97693.09;5195632;28;20245;-55
2022/05/12 00:10:51;;;;;;;4.03;3.72;;;16.40;96.00;;;17.21;58.77;97696.34;5194581;28;20218;-53
2022/05/12 00:13:26;;;;;;;4.75;4.38;;;16.30;96.20;;;17.13;58.79;97703.00;5194015;28;20296;-54
2022/05/12 00:15:59;;;;;;;4.72;4.32;;;16.30;97.10;;;17.08;59.45;97701.19;5194148;28;20206;-57
2022/05/12 00:18:32;;;;;;;6.07;5.13;;;16.20;96.80;;;17.04;60.13;97698.44;5190994;28;20208;-57
2022/05/12 00:21:05;;;;;;;5.20;4.80;;;16.10;97.30;;;17.05;60.50;97708.84;5189128;28;20219;-58
2022/05/12 00:23:38;;;;;;;5.85;5.38;;;16.20;98.10;;;17.09;61.86;97702.91;5189250;28;20205;-53
2022/05/12 00:26:11;;;;;;;5.68;5.18;;;16.20;98.70;;;17.13;62.27;97705.59;5188341;28;20226;-52
2022/05/12 00:28:46;;;;;;;5.97;5.45;;;16.30;98.80;;;17.08;62.35;97711.50;5192551;28;20225;-57
2022/05/12 00:31:19;;;;;;;5.90;5.40;;;16.30;99.00;;;17.08;61.92;97700.28;5194342;28;20704;-54
2022/05/12 00:33:53;;;;;;;5.80;5.40;;;16.30;98.80;;;17.10;62.30;97709.81;5192106;28;20210;-59
2022/05/12 00:36:26;;;;;;;5.90;5.40;;;16.20;98.80;;;17.06;62.00;97708.00;5190408;28;20216;-54
2022/05/12 00:38:59;;;;;;;5.15;4.75;;;16.20;98.60;;;17.05;61.54;97714.00;5190532;28;20519;-59
2022/05/12 00:41:33;;;;;;;5.20;4.80;;;16.20;98.80;;;17.04;62.36;97709.66;5192746;28;20247;-59
2022/05/12 00:44:11;;;;;;;5.43;4.95;;;16.20;98.70;;;17.03;62.90;97713.06;5195812;28;20206;-53
2022/05/12 00:46:49;;;;;;;5.32;5.03;;;16.20;99.10;;;17.02;63.15;97711.31;5195673;28;20298;-55
2022/05/12 00:49:34;;;;;;;5.93;5.43;;;16.10;99.50;;;17.05;63.59;97711.41;5196266;28;20558;-52
2022/05/12 00:52:11;;;;;;;6.03;5.50;;;16.20;99.60;;;17.07;63.22;97714.91;5197638;28;20221;-51
2022/05/12 00:54:57;;;;;;;5.88;5.38;;;16.20;99.60;;;17.07;64.10;97714.91;5195775;28;20208;-51
2022/05/12 00:57:36;;;;;;;5.50;4.85;;;16.20;99.90;;;17.00;63.13;97713.00;5192042;28;20711;-55
2022/05/12 01:00:15;;;;;;;6.03;5.57;;;16.10;99.50;;;16.90;62.38;97718.69;5194281;28;20304;-58
2022/05/12 01:02:52;;;;;;;5.80;5.28;;;16.00;99.30;;;16.93;63.26;97718.78;5187167;28;20202;-58
2022/05/12 01:05:27;;;;;;;5.78;5.38;;;16.00;99.70;;;16.87;62.76;97722.06;5191260;28;20241;-59
2022/05/12 01:08:01;;;;;;;5.50;5.00;;;16.10;99.00;;;16.92;62.33;97724.78;5190920;28;20249;-57
2022/05/12 01:10:34;;;;;;;5.55;5.13;;;16.10;98.90;;;16.95;62.68;97730.03;5194925;28;20218;-58
2022/05/12 01:13:07;;;;;;;5.35;4.95;;;16.20;99.60;;;16.99;63.92;97725.84;5192878;28;20289;-57
2022/05/12 01:15:51;;;;;;;5.75;5.35;;;16.30;99.70;;;17.10;65.03;97738.22;5196953;28;20194;-59
2022/05/12 01:18:28;;;;;;;5.65;5.25;;;16.30;99.90;;;17.17;63.51;97735.81;5195771;28;20230;-58
2022/05/12 01:21:01;;;;;;;5.93;5.43;;;16.40;99.70;;;17.20;63.76;97743.69;5189963;27;20280;-57
2022/05/12 01:23:39;;;;;;;5.35;4.85;;;16.40;99.90;;;17.28;62.96;97739.59;5197612;28;20195;-59
2022/05/12 01:26:14;;;;;;;5.03;4.63;;;16.50;99.30;;;17.27;63.51;97750.78;5197440;28;20205;-58
2022/05/12 01:28:47;;;;;;;5.15;4.82;;;16.40;99.50;;;17.24;62.31;97743.81;5193822;28;20661;-58
2022/05/12 01:31:22;;;;;;;4.93;4.45;;;16.40;99.50;;;17.20;62.81;97749.72;5193219;28;20230;-56
2022/05/12 01:33:55;;;;;;;5.47;5.18;;;16.30;99.30;;;17.15;62.87;97751.28;5192640;28;20287;-57
2022/05/12 01:36:28;;;;;;;5.50;5.00;;;16.20;99.90;;;17.07;63.85;97766.56;5197068;28;20215;-58
2022/05/12 01:39:04;;;;;;;5.18;4.68;;;16.20;99.90;;;17.02;63.93;97762.06;5193789;28;20194;-58
2022/05/12 01:41:37;;;;;;;5.57;5.07;;;16.10;99.90;;;16.96;64.87;97761.91;5198915;28;20249;-57
2022/05/12 01:44:11;;;;;;;5.30;4.90;;;16.10;99.90;;;17.00;65.74;97764.63;5190336;28;20244;-57
2022/05/12 01:46:44;;;;;;;5.47;5.07;;;16.10;99.90;;;17.04;64.88;97771.63;5193898;28;20661;-57
2022/05/12 01:49:17;;;;;;;4.72;4.32;;;16.10;99.90;;;16.76;64.67;97769.91;5185583;28;20297;-52
2022/05/12 01:51:53;;;;;;;5.55;5.10;;;15.80;99.90;;;16.74;64.72;97776.72;5196261;28;20202;-50
2022/05/12 01:54:30;;;;;;;5.00;4.60;;;15.80;99.90;;;16.69;65.30;97777.38;5191041;28;20573;-50
2022/05/12 01:57:04;;;;;;;5.05;4.40;;;15.80;99.90;;;16.62;65.62;97781.47;5190563;28;20201;-57
2022/05/12 01:59:37;;;;;;;5.15;4.85;;;15.70;99.90;;;16.63;66.41;97789.25;5191660;28;20204;-54
2022/05/12 02:02:10;;;;;;;6.03;5.53;;;15.80;99.90;;;16.66;66.70;97784.19;5190255;28;20312;-55
2022/05/12 02:04:43;;;;;;;5.45;5.00;;;15.80;99.90;;;16.59;67.26;97784.81;5190442;28;20568;-56
2022/05/12 02:07:18;;;;;;;5.10;4.70;;;15.70;99.90;;;16.61;67.33;97798.66;5192580;28;20226;-53
2022/05/12 02:09:53;;;;;;;4.88;4.47;;;15.80;99.90;;;16.64;66.83;97803.03;5196386;28;20274;-55
2022/05/12 02:12:26;;;;;;;5.18;4.88;;;15.80;99.90;;;16.59;66.72;97802.88;5188333;28;20206;-57
2022/05/12 02:14:59;;;;;;;5.28;4.80;;;15.70;99.90;;;16.61;67.04;97806.41;5191050;28;20737;-54
2022/05/12 02:17:32;;;;;;;5.97;5.57;;;15.70;99.90;;;16.60;68.02;97807.22;5194304;28;20675;-54
2022/05/12 02:20:09;;;;;;;6.00;5.55;;;15.70;99.90;;;16.63;67.84;97815.06;5195098;28;20263;-58
2022/05/12 02:22:43;;;;;;;5.93;5.32;;;15.70;99.90;;;16.62;68.00;97810.72;5193444;28;20248;-54
2022/05/12 02:25:18;;;;;;;5.43;4.95;;;15.70;99.90;;;16.58;68.16;97814.03;5191960;28;20233;-53
2022/05/12 02:27:52;;;;;;;6.10;5.70;;;15.60;99.90;;;16.46;68.01;97823.09;5195113;28;20697;-55
2022/05/12 02:30:29;;;;;;;6.50;5.97;;;15.50;99.90;;;16.44;68.46;97825.59;5188246;28;20254;-58
2022/05/12 02:33:03;;;;;;;5.63;5.10;;;15.50;99.90;;;16.41;68.75;97821.22;5193336;28;20647;-55
2022/05/12 02:35:36;;;;;;;5.47;5.07;;;15.40;99.90;;;16.39;68.45;97819.41;5192754;28;20194;-54
2022/05/12 02:38:10;;;;;;;5.80;5.40;;;15.50;99.90;;;16.37;68.89;97829.69;5194115;28;20229;-56
2022/05/12 02:40:45;;;;;;;5.95;5.47;;;15.50;99.90;;;16.39;68.88;97837.47;5188136;28;20228;-52
2022/05/12 02:43:24;;;;;;;5.55;5.15;;;15.40;99.90;;;16.24;69.58;97835.25;5185266;28;20218;-57
2022/05/12 02:46:00;;;;;;;5.68;5.28;;;15.30;99.90;;;16.28;69.58;97837.13;5192325;28;20274;-51
2022/05/12 02:48:38;;;;;;;6.35;5.78;;;15.40;99.90;;;16.26;70.00;97840.47;5191668;28;20213;-56
2022/05/12 02:51:12;;;;;;;6.45;5.93;;;15.40;99.90;;;16.17;69.03;97839.34;5193126;28;20252;-53
2022/05/12 02:53:45;;;;;;;5.85;5.43;;;15.30;99.90;;;16.07;69.22;97842.41;5194673;28;20231;-55
2022/05/12 02:56:19;;;;;;;5.70;5.30;;;15.20;99.90;;;16.06;70.72;97845.81;5188305;28;20236;-51
2022/05/12 02:58:52;;;;;;;5.57;5.18;;;15.20;99.90;;;16.08;70.14;97851.00;5191437;28;20655;-53
2022/05/12 03:01:25;;;;;;;6.20;5.70;;;15.20;99.90;;;16.13;70.68;97852.06;5187368;28;20258;-53
2022/05/12 03:03:59;;;;;;;5.70;5.30;;;15.20;99.90;;;16.08;70.63;97854.50;5193924;28;20190;-55
2022/05/12 03:06:32;;;;;;;6.32;5.75;;;15.20;99.90;;;16.06;70.50;97861.28;5195511;28;20255;-54
2022/05/12 03:09:06;;;;;;;5.88;5.40;;;15.20;99.90;;;16.07;70.77;97857.88;5196061;28;20247;-51
2022/05/12 03:11:40;;;;;;;6.55;6.03;;;15.10;99.90;;;16.02;71.72;97861.97;5192385;28;20246;-53
2022/05/12 03:14:14;;;;;;;5.90;5.50;;;15.20;99.90;;;16.02;71.57;97867.13;5196954;28;20282;-53
2022/05/12 03:16:47;;;;;;;6.35;5.90;;;15.20;99.90;;;15.95;71.76;97862.59;5198245;28;20233;-55
2022/05/12 03:19:21;;;;;;;6.05;5.55;;;15.10;99.90;;;15.99;70.94;97869.59;5197192;28;20194;-52
2022/05/12 03:21:54;;;;;;;6.10;5.60;;;15.10;99.90;;;15.96;71.06;97865.22;5194149;28;20285;-51
2022/05/12 03:24:27;;;;;;;5.72;5.35;;;15.00;99.90;;;16.01;71.13;97877.41;5191554;28;20212;-54
2022/05/12 03:27:01;;;;;;;6.35;5.72;;;15.10;99.90;;;15.96;70.92;97884.97;5196953;28;20284;-51
2022/05/12 03:29:35;;;;;;;6.30;5.90;;;15.00;99.90;;;15.93;71.22;97880.56;5187704;28;20253;-52
2022/05/12 03:32:10;;;;;;;5.72;5.22;;;15.00;99.90;;;15.93;71.04;97895.16;5194083;28;20650;-55
2022/05/12 03:34:44;;;;;;;5.50;5.10;;;15.00;99.90;;;15.90;71.05;97884.75;5189419;28;20197;-51
2022/05/12 03:37:18;;;;;;;6.70;6.03;;;15.00;99.90;;;15.85;70.90;97886.28;5194670;28;20210;-51
2022/05/12 03:39:51;;;;;;;5.95;5.55;;;14.90;99.90;;;15.75;70.96;97888.53;5191817;28;20215;-51
2022/05/12 03:42:25;;;;;;;6.35;5.85;;;14.80;99.90;;;15.80;71.38;97895.56;5185858;28;20234;-51
2022/05/12 03:44:59;;;;;;;5.90;5.40;;;14.90;99.90;;;15.75;71.31;97896.25;5189848;28;20687;-53
2022/05/12 03:47:36;;;;;;;6.38;5.88;;;14.80;99.90;;;15.69;72.06;97896.03;5187898;28;20205;-55
2022/05/12 03:50:12;;;;;;;6.47;5.97;;;14.80;99.90;;;15.63;71.04;97895.78;5196095;28;20653;-52
2022/05/12 03:52:53;;;;;;;6.55;5.95;;;14.70;99.90;;;15.61;71.52;97897.41;5193201;28;20263;-53
2022/05/12 03:55:27;;;;;;;6.32;5.82;;;14.70;99.90;;;15.51;71.53;97910.78;5189107;28;20230;-53
2022/05/12 03:58:02;;;;;;;6.38;5.88;;;14.60;99.90;;;15.53;72.31;97901.38;5189907;28;20203;-53
2022/05/12 04:00:35;;;;;;;5.85;5.45;;;14.60;99.90;;;15.52;72.90;97915.09;5191884;28;20260;-50
2022/05/12 04:03:08;;;;;;;5.82;5.40;;;14.70;99.90;;;15.53;72.46;97914.25;5193609;28;20274;-51
2022/05/12 04:05:41;;;;;;;5.93;5.55;;;14.60;99.90;;;15.50;72.45;97915.00;5185925;28;20436;-54
2022/05/12 04:08:15;;;;;;;6.25;5.75;;;14.60;99.90;;;15.51;72.75;97923.66;5189036;28;20297;-51
2022/05/12 04:10:49;;;;;;;6.35;5.95;;;14.60;99.90;;;15.56;73.16;97924.69;5188074;28;20765;-54
2022/05/12 04:13:24;;;;;;;5.95;5.45;;;14.70;99.90;;;15.52;72.64;97927.97;5197334;28;20235;-53
2022/05/12 04:15:57;;;;;;;7.05;6.30;;;14.60;99.90;;;15.57;72.71;97934.19;5198274;28;21452;-54
2022/05/12 04:18:30;;;;;;;6.82;6.30;;;14.70;99.90;;;15.53;73.40;97940.03;5197199;28;20301;-50
2022/05/12 04:21:04;;;;;;;6.57;5.93;;;14.70;99.90;;;15.63;73.17;97951.59;5195081;28;20214;-58
2022/05/12 04:23:37;;;;;;;6.68;6.00;;;14.70;99.90;;;15.65;73.53;97945.66;5197533;28;20199;-58
2022/05/12 04:26:11;;;;;;;6.82;6.18;;;14.80;99.90;;;15.70;73.11;97944.16;5189799;28;21770;-56
2022/05/12 04:28:45;;;;;;;6.50;5.90;;;14.80;99.90;;;15.73;73.82;97949.44;5195242;28;20214;-50
2022/05/12 04:31:18;;;;;;;7.32;6.68;;;14.90;99.90;;;15.68;73.22;97950.97;5190597;28;20263;-56
2022/05/12 04:36:43;;;;;;;7.63;6.95;;;14.80;99.90;;;15.74;72.95;97969.25;5190122;28;20202;-55
2022/05/12 04:39:17;;;;;;;7.05;6.47;;;14.90;99.90;;;15.85;73.21;97959.34;5192881;28;20233;-52
2022/05/12 04:41:50;;;;;;;7.53;6.82;;;15.00;99.90;;;15.95;72.53;97973.44;5197862;28;20212;-55
2022/05/12 04:44:26;;;;;;;6.88;6.38;;;15.10;99.90;;;16.03;73.12;97974.63;5191810;28;20209;-55
2022/05/12 04:46:59;;;;;;;7.45;6.75;;;15.20;99.90;;;16.14;72.42;97973.31;5192186;28;20200;-54
2022/05/12 04:49:32;;;;;;;8.02;7.32;;;15.30;99.90;;;16.10;72.32;97971.44;5192605;28;20598;-56
2022/05/12 04:52:06;;;;;;;7.65;7.03;;;15.30;99.90;;;16.10;72.54;97976.59;5187052;28;20202;-58
2022/05/12 04:54:39;;;;;;;7.88;7.05;;;15.30;99.90;;;16.24;72.61;97986.56;5193802;28;20203;-56
2022/05/12 04:57:12;;;;;;;7.05;6.50;;;15.40;99.90;;;16.21;72.65;97983.03;5196317;28;20202;-58
2022/05/12 04:59:55;;;;;;;7.03;6.53;;;15.40;99.90;;;16.32;73.25;97985.13;5192987;28;20218;-53
2022/05/12 05:02:28;;;;;;;7.55;7.05;;;15.40;99.90;;;16.51;72.73;97990.16;5198151;28;20208;-54
2022/05/12 05:05:02;;;;;;;7.75;7.15;;;15.60;99.90;;;16.67;71.96;97997.59;5196638;28;20251;-56
2022/05/12 05:07:35;;;;;;;7.65;6.95;;;15.80;99.90;;;16.77;71.21;97988.50;5201687;28;20658;-57
2022/05/12 05:10:12;;;;;;;7.60;6.90;;;15.90;99.90;;;16.94;71.34;98007.16;5202337;28;20567;-52
2022/05/12 05:12:45;;;;;;;7.60;7.00;;;16.00;99.90;;;17.15;70.73;98006.13;5195610;28;20241;-57
2022/05/12 05:15:21;;;;;;;7.70;6.97;;;16.20;99.90;;;17.43;70.02;98013.09;5193720;28;20677;-55
2022/05/12 05:17:54;;;;;;;7.68;7.03;;;16.50;99.90;;;18.00;68.16;98024.41;5192537;28;20206;-56
2022/05/12 05:20:30;;;;;;;7.43;6.78;;;17.10;99.90;;;18.59;64.90;98033.88;5217822;27;20309;-53
2022/05/12 05:23:03;;;;;;;6.80;6.20;;;17.70;99.90;;;19.15;63.32;98029.41;5218445;27;20250;-53
2022/05/12 05:25:36;;;;;;;7.78;7.18;;;18.10;99.90;;;19.56;61.28;98033.03;5192001;28;20289;-53
2022/05/12 05:28:13;;;;;;;6.90;6.30;;;18.50;99.90;;;19.96;59.76;98035.72;5188276;28;20198;-57
2022/05/12 05:30:47;;;;;;;7.63;6.88;;;18.90;99.90;;;20.39;58.16;98044.44;5186214;28;20218;-55
2022/05/12 05:33:21;;;;;;;7.32;6.70;;;19.10;99.90;;;20.87;56.65;98044.59;5199428;28;20201;-56
2022/05/12 05:35:54;;;;;;;7.07;6.47;;;19.60;99.00;;;21.21;55.86;98049.56;5198320;28;20676;-58
2022/05/12 05:38:27;;;;;;;6.43;5.95;;;19.80;98.80;;;21.62;54.60;98052.03;5192965;28;20724;-57
2022/05/12 05:41:00;;;;;;;7.30;6.60;;;20.10;98.30;;;21.70;54.89;98060.84;5197259;27;20213;-56
2022/05/12 05:43:33;;;;;;;6.57;6.15;;;20.20;98.20;;;21.88;54.34;98063.72;5189784;28;20214;-57
2022/05/12 05:46:08;;;;;;;6.45;5.95;;;20.20;98.20;;;21.80;54.67;98070.53;5203325;28;20213;-55
2022/05/12 05:48:50;;;;;;;6.03;5.43;;;20.20;98.50;;;21.90;54.60;98064.63;5188079;28;20203;-57
2022/05/12 05:54:15;;;;;;;4.50;4.10;;;20.30;98.00;;;21.72;54.84;98079.94;5196048;27;20673;-59
2022/05/12 05:56:48;;;;;;;5.53;4.80;;;20.30;97.90;;;21.71;54.79;98088.59;5188895;28;20198;-58
2022/05/12 05:59:21;;;;;;;4.65;4.25;;;20.20;98.10;;;21.55;54.98;98080.53;5193527;28;20195;-59
2022/05/12 06:01:56;;;;;;;5.13;4.65;;;20.10;98.00;;;21.67;55.71;98092.00;5191755;28;20259;-59
2022/05/12 06:04:29;;;;;;;5.72;5.22;;;20.30;98.40;;;22.33;53.77;98091.31;5186426;28;20194;-59
2022/05/12 06:07:03;;;;;;;6.10;5.60;;;20.80;97.30;;;22.53;52.91;98098.56;5187087;28;20225;-58
2022/05/12 06:09:36;;;;;;;5.93;5.32;;;20.90;96.90;;;22.65;52.52;98107.38;5193613;28;20245;-59
2022/05/12 06:12:10;;;;;;;6.53;5.07;;;21.10;96.60;;;22.56;52.37;98112.50;5196688;27;20284;-59
2022/05/12 06:14:43;;;;;;;5.07;4.57;;;20.90;96.20;;;22.45;52.23;98107.13;5201416;27;20218;-57
2022/05/12 06:17:18;;;;;;;5.22;4.72;;;20.90;96.20;;;22.30;52.58;98117.34;5189201;28;20312;-59
2022/05/12 06:19:52;;;;;;;6.90;4.57;;;20.90;96.70;;;22.13;53.51;98111.84;5192532;27;20214;-58
2022/05/12 06:22:25;;;;;;;5.07;4.10;;;20.80;96.90;;;22.03;55.20;98118.63;5198441;27;20203;-59
2022/05/12 06:24:58;;;;;;;4.55;4.10;;;20.70;97.90;;;22.02;54.80;98122.06;5189147;28;20243;-57
2022/05/12 06:27:31;;;;;;;4.90;3.58;;;20.60;97.60;;;22.03;55.13;98126.44;5187349;28;20263;-58
2022/05/12 06:30:07;;;;;;;3.40;3.10;;;20.70;97.90;;;22.38;53.57;98126.13;5197847;27;20222;-57
2022/05/12 06:32:44;;;;;;;3.60;2.35;;;20.90;96.70;;;22.93;51.82;98116.44;5191941;28;20677;-58
2022/05/12 06:35:20;;;;;;;2.28;2.08;;;21.50;95.90;;;23.29;50.34;98116.88;5189693;28;20233;-58
2022/05/12 06:37:53;;;;;;;2.45;2.20;;;21.90;94.90;;;23.76;48.41;98125.22;5190730;28;20233;-59
2022/05/12 06:40:26;;;;;;;3.88;2.05;;;22.40;93.50;;;24.46;47.79;98131.84;5189952;28;20309;-59
2022/05/12 06:43:03;;;;;;;3.35;2.08;;;23.00;93.30;;;24.93;46.70;98133.84;5195177;28;20237;-59
2022/05/12 06:45:37;;;;;;;1.75;1.65;;;23.60;92.40;;;25.70;44.12;98123.63;5185453;28;20285;-59
2022/05/12 06:48:11;;;;;;;4.15;2.10;;;24.00;91.40;;;26.24;42.98;98135.00;5188622;28;20201;-57
2022/05/12 06:50:45;;;;;;;4.03;1.83;;;24.50;90.40;;;26.72;42.29;98136.69;5187205;28;20447;-59
2022/05/12 06:53:19;;;;;;;2.60;1.88;;;24.90;90.30;;;26.66;41.45;98134.09;5201807;27;20225;-58
2022/05/12 06:55:52;;;;;;;3.22;2.03;;;25.10;88.30;;;26.80;41.06;98133.19;5196201;28;20665;-59
2022/05/12 06:58:25;;;;;;;2.50;1.77;;;25.20;87.40;;;26.71;42.06;98140.19;5192245;28;20256;-58
2022/05/12 07:01:00;;;;;;;1.73;1.40;;;25.00;88.90;;;26.82;40.47;98140.16;5196460;27;20221;-58
2022/05/12 07:03:34;;;;;;;2.22;1.60;;;25.20;86.40;;;27.22;39.41;98134.78;5186803;28;20194;-59
2022/05/12 07:06:07;;;;;;;2.80;1.80;;;25.40;85.80;;;26.78;40.01;98150.66;5191870;28;20704;-55
2022/05/12 07:08:42;;;;;;;1.67;1.58;;;24.90;86.00;;;26.49;41.28;98157.69;5196750;28;20285;-56
2022/05/12 07:11:15;;;;;;;2.05;1.88;;;24.30;88.70;;;26.24;41.60;98158.59;5190769;28;20380;-59
2022/05/12 07:13:48;;;;;;;3.63;1.95;;;24.10;89.20;;;25.40;43.75;98152.34;5189850;28;20288;-59
2022/05/12 07:16:21;;;;;;;1.95;1.60;;;23.60;90.60;;;24.95;44.41;98156.53;5226993;27;20236;-59
2022/05/12 07:18:56;;;;;;;2.22;1.55;;;23.10;91.00;;;24.65;45.75;98165.09;5234671;27;20193;-59
2022/05/12 07:27:10;;;;;;;2.63;1.85;;;22.40;92.40;;;23.84;47.77;98156.63;5191616;28;20191;-59
2022/05/12 07:29:44;;;;;;;3.42;1.98;;;22.30;92.70;;;23.92;47.76;98169.72;5188720;28;20317;-56
2022/05/12 07:32:17;;;;;;;2.75;1.50;;;22.40;92.60;;;24.40;46.69;98170.97;5188373;28;20247;-58
2022/05/12 07:34:52;;;;;;;4.10;1.70;;;22.80;91.90;;;24.82;46.21;98187.84;5192422;28;20285;-57
2022/05/12 07:37:25;;;;;;;4.05;2.17;;;23.30;91.60;;;24.90;44.51;98183.53;5186020;28;20898;-58
2022/05/12 07:39:58;;;;;;;2.05;1.70;;;23.30;91.00;;;24.76;45.52;98193.91;5199351;28;20246;-58
2022/05/12 07:42:31;;;;;;;3.28;1.70;;;23.20;91.60;;;25.05;46.49;98190.59;5197123;28;20233;-58
2022/05/12 07:45:06;;;;;;;3.15;1.70;;;23.60;91.60;;;25.23;43.48;98190.69;5192956;28;20641;-58
2022/05/12 07:47:39;;;;;;;2.33;1.40;;;23.80;90.10;;;25.41;43.81;98189.91;5201214;27;20205;-57
2022/05/12 07:50:13;;;;;;;1.90;1.50;;;23.80;90.30;;;26.03;43.64;98188.28;5191642;28;20731;-59
2022/05/12 07:52:46;;;;;;;1.92;1.60;;;24.50;90.20;;;26.58;41.84;98190.06;5206922;27;20292;-59
2022/05/12 07:55:19;;;;;;;2.50;1.77;;;24.90;88.10;;;26.90;41.52;98197.88;5199546;27;20216;-59
2022/05/12 07:57:53;;;;;;;4.38;1.98;;;25.10;87.90;;;27.24;40.23;98205.66;5200543;27;20224;-57
2022/05/12 08:00:26;;;;;;;1.70;1.52;;;25.20;86.30;;;26.94;40.36;98204.84;5188462;28;20222;-59
2022/05/12 08:03:00;;;;;;;2.90;1.45;;;25.00;86.40;;;26.42;41.44;98200.53;5194251;28;20198;-60
2022/05/12 08:05:35;;;;;;;2.58;1.67;;;24.80;86.90;;;26.33;42.31;98195.31;5203220;27;20240;-59
2022/05/12 08:08:09;;;;;;;1.77;1.67;;;24.90;87.30;;;26.50;42.28;98198.81;5194548;28;20288;-60
2022/05/12 08:10:42;;;;;;;2.05;1.50;;;25.30;86.70;;;26.73;41.24;98195.28;5191265;28;20246;-59
2022/05/12 08:13:17;;;;;;;2.30;1.60;;;25.50;85.30;;;27.10;40.40;98209.19;5194541;28;20215;-58
2022/05/12 08:15:53;;;;;;;2.33;1.30;;;25.60;85.30;;;27.08;41.49;98196.94;5197151;28;20314;-59
2022/05/12 08:18:27;;;;;;;2.80;1.70;;;25.80;85.30;;;27.19;39.70;98200.44;5195634;28;20254;-60
2022/05/12 08:21:02;;;;;;;2.03;1.40;;;25.90;83.30;;;26.86;40.48;98201.38;5209736;27;20396;-59
2022/05/12 08:23:35;;;;;;;4.07;1.73;;;25.70;84.00;;;27.11;40.99;98199.56;5198561;27;20284;-59
2022/05/12 08:26:08;;;;;;;1.60;1.50;;;26.10;84.30;;;27.56;40.42;98189.75;5192616;28;20256;-59
2022/05/12 08:28:42;;;;;;;2.15;1.77;;;26.70;83.20;;;27.90;38.80;98190.47;5189580;28;20273;-59
2022/05/12 08:31:15;;;;;;;1.90;1.70;;;26.80;81.80;;;27.51;39.82;98202.91;5192643;28;20232;-59
2022/05/12 08:33:48;;;;;;;2.03;1.60;;;26.80;82.00;;;27.78;38.74;98196.59;5190599;28;20202;-59
2022/05/12 08:36:23;;;;;;;2.72;1.55;;;26.50;82.50;;;27.80;38.97;98197.50;5195548;28;20259;-59
2022/05/12 08:38:57;;;;;;;1.88;1.77;;;26.50;82.50;;;27.72;39.34;98194.03;5202810;27;20288;-60
2022/05/12 08:41:40;;;;;;;2.47;1.80;;;26.80;82.40;;;27.64;40.05;98187.94;5191244;28;20669;-59
2022/05/12 08:44:19;;;;;;;2.55;1.90;;;26.60;82.90;;;27.87;39.08;98190.44;5204686;27;20210;-59
2022/05/12 08:46:57;;;;;;;3.30;2.00;;;26.60;82.20;;;27.78;39.39;98195.75;5194637;28;20254;-59
2022/05/12 08:49:33;;;;;;;4.35;2.30;;;26.30;83.10;;;27.52;40.09;98194.13;5192025;28;20203;-59
2022/05/12 08:52:15;;;;;;;2.55;2.15;;;26.50;83.00;;;28.06;38.69;98196.47;5194697;28;20202;-59
2022/05/12 08:54:55;;;;;;;2.25;2.00;;;26.80;81.50;;;28.26;38.20;98207.69;5189423;28;20198;-59
2022/05/12 08:57:32;;;;;;;4.18;2.03;;;26.80;81.40;;;27.72;38.54;98207.16;5203557;27;20568;-59
2022/05/12 09:00:12;;;;;;;2.00;1.80;;;26.70;80.90;;;27.81;39.39;98209.78;5189791;27;20304;-59
2022/05/12 09:02:55;;;;;;;5.53;2.35;;;26.30;83.10;;;27.55;38.87;98215.13;5211375;27;20186;-59
2022/05/12 09:05:31;;;;;;;3.35;1.90;;;25.80;82.80;;;26.91;40.63;98216.22;5212945;27;20189;-58
2022/05/12 09:08:16;;;;;;;3.42;2.30;;;25.40;84.80;;;26.30;42.53;98211.03;5195564;28;20670;-59
2022/05/12 09:11:01;;;;;;;2.00;1.80;;;24.80;87.00;;;26.14;42.98;98214.50;5208029;27;20264;-59
2022/05/12 09:13:42;;;;;;;2.55;2.28;;;24.40;88.10;;;26.25;41.77;98212.78;5215795;27;20579;-58
2022/05/12 09:16:21;;;;;;;2.15;2.05;;;24.30;87.30;;;26.10;42.32;98217.97;5219236;27;20198;-59
2022/05/12 09:18:55;;;;;;;3.13;2.28;;;24.30;87.10;;;25.69;43.49;98226.63;5210789;27;20202;-59
2022/05/12 09:21:31;;;;;;;2.40;2.20;;;24.10;88.80;;;25.69;43.68;98229.22;5203794;27;20228;-59
2022/05/12 09:24:08;;;;;;;2.50;2.30;;;24.10;90.00;;;25.91;43.86;98223.22;5212879;27;20224;-59
2022/05/12 09:26:46;;;;;;;2.60;2.40;;;24.50;88.30;;;26.45;42.53;98223.25;5208058;27;20285;-58
2022/05/12 09:29:23;;;;;;;2.55;2.22;;;25.00;86.80;;;26.86;41.75;98224.97;5191025;28;20201;-59
2022/05/12 09:32:15;;;;;;;2.67;2.35;;;25.60;85.50;;;27.12;41.17;98219.66;5200595;27;20262;-59
2022/05/12 09:35:14;;;;;;;3.45;2.55;;;26.00;84.60;;;27.07;41.48;98218.78;5209515;27;20193;-59
2022/05/12 09:37:48;;;;;;;2.40;2.30;;;26.20;85.20;;;26.54;42.12;98214.53;5196257;28;20254;-58
2022/05/12 09:40:34;;;;;;;3.25;2.28;;;25.40;85.60;;;26.47;42.06;98211.91;5229372;27;20412;-59
2022/05/12 09:43:20;;;;;;;2.55;2.13;;;25.10;85.60;;;26.23;43.23;98204.91;5191562;28;20233;-59
2022/05/12 09:46:22;;;;;;;2.65;2.30;;;25.00;87.40;;;26.32;43.40;98209.25;5188838;28;20202;-59
2022/05/12 09:48:56;;;;;;;2.85;2.63;;;25.10;87.10;;;26.24;42.89;98205.75;5197228;27;20255;-57
2022/05/12 09:51:32;;;;;;;2.30;2.20;;;25.20;86.00;;;26.39;42.78;98208.41;5209635;27;20244;-58
2022/05/12 09:54:28;;;;;;;2.95;2.60;;;25.20;86.50;;;26.60;42.70;98209.28;5197477;27;20664;-56
2022/05/12 09:57:15;;;;;;;3.45;2.45;;;25.40;86.40;;;26.25;42.72;98204.91;5197294;27;20627;-56
2022/05/12 09:59:55;;;;;;;3.53;2.88;;;25.10;86.40;;;26.00;43.72;98210.13;5192391;28;20243;-58
2022/05/12 10:12:39;;;;;;;3.15;2.78;;;24.50;88.80;;;25.78;44.56;98205.69;5187332;28;20350;-58
2022/05/12 10:15:21;;;;;;;4.38;3.00;;;24.50;89.40;;;25.58;45.52;98208.25;5189434;28;20579;-58
2022/05/12 10:18:00;;;;;;;4.32;2.88;;;24.40;89.60;;;25.75;45.15;98198.69;5220453;27;20644;-58
2022/05/12 10:20:41;;;;;;;4.40;3.00;;;24.70;89.00;;;26.22;44.06;98191.81;5194304;28;21564;-59
2022/05/12 10:23:24;;;;;;;3.35;3.05;;;25.20;87.80;;;26.65;42.64;98192.66;5194401;28;20201;-59
2022/05/12 10:26:07;;;;;;;3.33;3.00;;;25.70;85.80;;;26.78;42.49;98203.13;5191411;28;20232;-59
2022/05/12 10:28:52;;;;;;;3.33;3.13;;;25.90;85.60;;;26.77;41.63;98190.91;5192832;28;20206;-59
2022/05/12 10:31:29;;;;;;;3.15;2.90;;;25.80;84.30;;;26.75;43.55;98190.88;5186691;28;20307;-58
2022/05/12 10:34:30;;;;;;;3.53;3.17;;;25.90;86.60;;;26.97;41.59;98178.59;5190810;28;20200;-59
2022/05/12 10:37:22;;;;;;;3.95;3.10;;;26.20;83.80;;;26.99;42.30;98183.84;5190914;28;20292;-59
2022/05/12 10:40:04;;;;;;;3.55;3.30;;;26.10;85.30;;;27.24;41.28;98172.38;5191052;28;20249;-58
2022/05/12 10:42:46;;;;;;;4.68;4.07;;;26.30;83.40;;;27.38;41.22;98164.44;5191374;28;20618;-59
2022/05/12 10:45:26;;;;;;;4.55;4.15;;;26.60;83.60;;;27.38;40.88;98170.56;5190566;28;20193;-57
2022/05/12 10:48:22;;;;;;;4.10;3.63;;;26.40;82.80;;;27.20;41.35;98169.81;5193145;28;20291;-59
2022/05/12 10:51:01;;;;;;;4.22;3.83;;;26.20;83.90;;;27.36;41.14;98155.72;5198233;28;20320;-59
2022/05/12 10:53:52;;;;;;;4.13;3.72;;;26.50;83.70;;;27.19;41.49;98161.06;5193269;28;20233;-59
2022/05/12 10:56:34;;;;;;;4.38;3.97;;;26.30;84.10;;;27.24;40.69;98154.00;5189791;28;20204;-59
2022/05/12 10:59:34;;;;;;;4.25;3.85;;;26.20;82.90;;;27.24;40.95;98146.13;5194075;28;20185;-59
2022/05/12 11:02:20;;;;;;;4.85;4.45;;;26.20;83.50;;;27.14;40.82;98147.91;5201206;27;20293;-58
2022/05/12 11:05:09;;;;;;;4.47;4.07;;;26.00;83.30;;;27.04;41.68;98145.31;5192190;28;20194;-59
2022/05/12 11:07:49;;;;;;;4.50;4.10;;;25.90;84.80;;;26.65;43.34;98134.09;5211390;27;20641;-59
2022/05/12 11:10:29;;;;;;;3.22;2.88;;;25.80;86.30;;;26.77;42.99;98136.69;5188217;28;20796;-58
2022/05/12 11:13:12;;;;;;;4.10;3.42;;;25.70;86.40;;;26.57;43.02;98134.13;5219565;27;20211;-59
2022/05/12 11:15:54;;;;;;;3.80;3.50;;;25.40;86.40;;;26.44;43.41;98140.22;5195935;28;20671;-59
2022/05/12 11:18:38;;;;;;;3.33;3.03;;;25.20;86.80;;;26.37;44.08;98134.13;5227417;27;20198;-59